Rouen Airport

LFOP · Seine-Maritime, Normandy, 法国

罗盘
风向 的 Rouen Airport 4/22
风: 3 kt, 1 beaufort

2 kt

2 kt
改变
0 1.000 2.000 3.000 4.000 5.000
BKN 1.800 ft
BKN 2.400 ft
OVC 2.900 ft
SPECI LFRG 290000Z AUTO VRB03KT 9999 BKN018/// BKN024/// OVC029/// ///TCU 08/07 Q1014

METAR Rouen Airport - LFOP/URO

Rouen Airport是,法国中的中型机场。 该机场有2条跑道: 4/22 和 5/23. 该领域的国际民航组织标志是LFOP 它的国际航空运输协会代码是URO.

这份报告是针对2022年11月29日 01:00, 当地时间在Deauville-Saint-Gatien Airport进行的。

机场观察

可变方向的风很小或没有风。

可见度为10 km 或者更多。

有碎云在1.800 ft的高度, 碎云在2.400 ft的高度 和 乌云密布在2.900 ft的高度。 破损或更高的上限为1.800 ft。

温度为8 °C,阵风为6 °C。 露点为7 °C,相对湿度为93%。 海平面上的气压为1014 hPa (QNH)。

白天

今天,太阳从08:26升起,在17:00降落。 这适用于Rouen Airport,世界夏令时可能有所不同。 当地时间与世界标准时间之间的时差为+1 小时。 当前,没有夏令时有效。

公司介绍

在这个机场,你可以找到飞行俱乐部。 本场上唯一已知的公司是Aéro-Club de Rouen Normandie。

体会

到Vliegles.nl去找飞行课程,跳伞和其他飞行体验。 浏览页面,了解Rouen Airport附近所有可用的活动。 你也可以使用搜索功能来寻找你所在地附近的特定飞行课程、跳伞或其他飞行体验。

跑道

Id 标题 侧风 逆风 侧风 %
4/22 041°-221° 2 kt 2 kt 66 %
5/23 050°-230° 2 kt 2 kt 77 %

逆风成分最大的方向会被突出显示,并用于横风计算。 这并不一定意味着这个方向在使用。

乌云

1.800 ft BKN 碎云
2.400 ft BKN 碎云
2.900 ft OVC 乌云密布

温度 & 天气

温度 8 °C
露点 7 °C
相对湿度 93%
风寒 6 °C
Kp-index 1 (0-9)

白天

日出
08:30 (6:41)
中午
12:47
日落
17:04

小工具

你想在你的网站上有一个关于Rouen Airport的当前航空天气(METAR)的小部件吗?

显示HTML代码

我们和第三方通过cookies跟踪您在我们网站上的互联网行为。如果你继续,我们认为你同意我们的饼干政策